createdAt,value
2023-04-15T00:01:01.398Z,98334.50
2023-04-15T00:03:29.958Z,98344.00
2023-04-15T00:05:58.568Z,98343.97
2023-04-15T00:08:25.740Z,98359.56
2023-04-15T00:10:53.174Z,98350.88
2023-04-15T00:13:20.411Z,98356.91
2023-04-15T00:15:48.144Z,98358.66
2023-04-15T00:18:15.182Z,98361.25
2023-04-15T00:20:42.022Z,98369.03
2023-04-15T00:23:08.889Z,98369.91
2023-04-15T00:25:35.939Z,98366.44
2023-04-15T00:28:02.895Z,98366.50
2023-04-15T00:30:29.965Z,98365.63
2023-04-15T00:32:57.056Z,98362.19
2023-04-15T00:35:24.239Z,98372.56
2023-04-15T00:37:51.686Z,98368.22
2023-04-15T00:40:21.249Z,98379.44
2023-04-15T00:42:48.265Z,98375.13
2023-04-15T00:45:15.776Z,98375.16
2023-04-15T00:47:44.561Z,98377.72
2023-04-15T00:50:12.924Z,98373.41
2023-04-15T00:52:40.907Z,98376.84
2023-04-15T00:55:11.006Z,98366.47
2023-04-15T00:57:39.967Z,98372.53
2023-04-15T01:02:59.728Z,98364.75
2023-04-15T01:05:27.154Z,98363.88
2023-04-15T01:07:55.300Z,98371.66
2023-04-15T01:10:22.432Z,98367.34
2023-04-15T01:12:49.694Z,98373.38
2023-04-15T01:15:16.735Z,98378.56
2023-04-15T01:17:43.700Z,98371.63
2023-04-15T01:20:12.401Z,98379.41
2023-04-15T01:22:39.688Z,98382.84
2023-04-15T01:25:15.812Z,98370.78
2023-04-15T01:27:42.909Z,98370.78
2023-04-15T01:30:10.755Z,98372.50
2023-04-15T01:32:38.566Z,98377.72
2023-04-15T01:35:06.108Z,98382.88
2023-04-15T01:37:33.377Z,98383.72
2023-04-15T01:40:00.400Z,98382.03
2023-04-15T01:42:27.907Z,98387.22
2023-04-15T01:44:54.989Z,98381.16
2023-04-15T01:47:22.698Z,98373.38
2023-04-15T01:49:49.729Z,98381.16
2023-04-15T01:52:16.627Z,98382.88
2023-04-15T01:54:43.615Z,98383.72
2023-04-15T01:57:10.489Z,98383.72
2023-04-15T01:59:37.493Z,98384.59
2023-04-15T02:02:04.924Z,98378.56
2023-04-15T02:04:32.131Z,98375.94
2023-04-15T02:06:59.021Z,98375.06
2023-04-15T02:09:25.997Z,98372.47
2023-04-15T02:11:54.422Z,98381.13
2023-04-15T02:14:21.638Z,98382.00
2023-04-15T02:16:48.606Z,98379.38
2023-04-15T02:19:16.186Z,98385.41
2023-04-15T02:21:42.968Z,98379.38
2023-04-15T02:24:10.018Z,98387.13
2023-04-15T02:26:36.855Z,98382.78
2023-04-15T02:29:03.939Z,98384.47
2023-04-15T02:31:31.039Z,98393.09
2023-04-15T02:33:57.888Z,98390.47
2023-04-15T02:36:24.861Z,98394.78
2023-04-15T02:38:51.877Z,98396.47
2023-04-15T02:41:18.896Z,98400.78
2023-04-15T02:43:45.835Z,98391.31
2023-04-15T02:46:15.047Z,98388.69
2023-04-15T02:48:42.054Z,98392.19
2023-04-15T02:51:31.419Z,98388.72
2023-04-15T02:53:58.687Z,98390.41
2023-04-15T02:56:25.810Z,98400.78
2023-04-15T02:58:56.284Z,98395.66
2023-04-15T03:01:23.176Z,98390.41
2023-04-15T03:03:50.276Z,98394.56
2023-04-15T03:06:17.352Z,98390.09
2023-04-15T03:08:44.244Z,98384.94
2023-04-15T03:11:11.136Z,98388.44
2023-04-15T03:13:39.767Z,98386.50
2023-04-15T03:16:07.353Z,98373.38
2023-04-15T03:18:34.213Z,98373.28
2023-04-15T03:21:01.253Z,98368.09
2023-04-15T03:23:28.195Z,98379.41
2023-04-15T03:25:57.344Z,98383.78
2023-04-15T03:28:24.809Z,98397.56
2023-04-15T03:30:51.828Z,98394.13
2023-04-15T03:33:18.698Z,98402.88
2023-04-15T03:35:45.709Z,98408.91
2023-04-15T03:38:12.560Z,98405.44
2023-04-15T03:40:42.359Z,98417.56
2023-04-15T03:43:09.390Z,98407.25
2023-04-15T03:45:36.397Z,98409.84
2023-04-15T03:48:16.479Z,98412.38
2023-04-15T03:50:44.462Z,98413.25
2023-04-15T03:53:11.462Z,98417.56
2023-04-15T03:55:38.494Z,98419.31
2023-04-15T03:58:05.436Z,98424.53
2023-04-15T04:00:32.733Z,98435.75
2023-04-15T04:02:59.766Z,98438.38
2023-04-15T04:05:26.786Z,98448.72
2023-04-15T04:07:53.661Z,98448.75
2023-04-15T04:10:20.492Z,98451.38
2023-04-15T04:12:47.365Z,98449.63
2023-04-15T04:15:14.291Z,98457.50
2023-04-15T04:17:41.533Z,98460.13
2023-04-15T04:20:08.960Z,98465.47
2023-04-15T04:22:42.708Z,98463.03
2023-04-15T04:25:10.578Z,98463.97
2023-04-15T04:27:37.610Z,98476.09
2023-04-15T04:30:05.689Z,98464.88
2023-04-15T04:32:32.654Z,98468.34
2023-04-15T04:34:59.602Z,98476.94
2023-04-15T04:37:26.750Z,98477.78
2023-04-15T04:39:53.618Z,98473.44
2023-04-15T04:42:20.568Z,98479.50
2023-04-15T04:44:47.463Z,98482.06
2023-04-15T04:47:14.340Z,98487.31
2023-04-15T04:49:41.749Z,98490.75
2023-04-15T04:52:09.273Z,98496.78
2023-04-15T04:54:36.421Z,98504.31
2023-04-15T04:57:03.293Z,98506.88
2023-04-15T04:59:30.195Z,98508.69
2023-04-15T05:01:57.185Z,98512.19
2023-04-15T05:04:24.215Z,98511.34
2023-04-15T05:06:51.107Z,98506.19
2023-04-15T05:09:18.069Z,98520.88
2023-04-15T05:11:44.953Z,98522.63
2023-04-15T05:14:11.900Z,98522.59
2023-04-15T05:16:38.786Z,98512.31
2023-04-15T05:19:05.865Z,98521.03
2023-04-15T05:21:32.739Z,98511.53
2023-04-15T05:23:59.554Z,98515.03
2023-04-15T05:26:27.692Z,98522.81
2023-04-15T05:28:55.299Z,98524.59
2023-04-15T05:31:22.265Z,98523.75
2023-04-15T05:33:49.343Z,98522.03
2023-04-15T05:36:16.205Z,98529.84
2023-04-15T05:38:43.039Z,98522.94
2023-04-15T05:41:09.904Z,98531.53
2023-04-15T05:43:36.734Z,98527.16
2023-04-15T05:46:03.572Z,98539.25
2023-04-15T05:48:30.741Z,98527.09
2023-04-15T05:50:58.089Z,98538.31
2023-04-15T05:53:24.952Z,98536.63
2023-04-15T05:55:51.879Z,98536.72
2023-04-15T05:58:18.725Z,98543.59
2023-04-15T06:00:46.417Z,98534.06
2023-04-15T06:03:13.619Z,98541.84
2023-04-15T06:05:40.836Z,98532.34
2023-04-15T06:08:08.485Z,98526.25
2023-04-15T06:10:36.959Z,98520.97
2023-04-15T06:13:04.465Z,98522.63
2023-04-15T06:15:31.914Z,98512.09
2023-04-15T06:17:58.926Z,98528.31
2023-04-15T06:20:25.839Z,98523.53
2023-04-15T06:22:52.817Z,98521.13
2023-04-15T06:25:20.114Z,98525.31
2023-04-15T06:27:55.953Z,98514.56
2023-04-15T06:30:24.410Z,98523.00
2023-04-15T06:32:51.452Z,98517.38
2023-04-15T06:35:18.589Z,98516.84
2023-04-15T06:37:57.003Z,98520.00
2023-04-15T06:40:23.845Z,98520.03
2023-04-15T06:43:05.106Z,98525.13
2023-04-15T06:45:32.545Z,98517.44
2023-04-15T06:47:59.568Z,98509.75
2023-04-15T06:50:27.390Z,98506.72
2023-04-15T06:52:56.440Z,98511.75
2023-04-15T06:55:23.399Z,98507.84
2023-04-15T06:58:04.385Z,98500.03
2023-04-15T07:00:31.452Z,98491.53
2023-04-15T07:02:58.376Z,98499.69
2023-04-15T07:05:25.665Z,98486.41
2023-04-15T07:07:53.142Z,98496.09
2023-04-15T07:10:20.537Z,98500.88
2023-04-15T07:12:49.232Z,98506.91
2023-04-15T07:15:26.185Z,98502.53
2023-04-15T07:17:53.089Z,98505.00
2023-04-15T07:20:20.208Z,98489.09
2023-04-15T07:22:47.019Z,98490.28
2023-04-15T07:25:13.960Z,98491.03
2023-04-15T07:27:40.922Z,98477.56
2023-04-15T07:30:12.857Z,98488.22
2023-04-15T07:32:39.939Z,98477.00
2023-04-15T07:35:07.065Z,98492.25
2023-04-15T07:37:34.866Z,98483.50
2023-04-15T07:40:02.297Z,98484.03
2023-04-15T07:42:40.739Z,98474.97
2023-04-15T07:45:09.668Z,98476.22
2023-04-15T07:47:36.736Z,98473.44
2023-04-15T07:50:03.732Z,98482.69
2023-04-15T07:52:40.660Z,98485.28
2023-04-15T07:55:11.055Z,98485.97
2023-04-15T07:58:18.104Z,98485.56
2023-04-15T08:00:47.053Z,98493.94
2023-04-15T08:03:14.036Z,98477.38
2023-04-15T08:06:09.541Z,98483.06
2023-04-15T08:08:36.837Z,98486.19
2023-04-15T08:11:03.679Z,98486.03
2023-04-15T08:13:30.771Z,98487.25
2023-04-15T08:16:23.022Z,98478.72
2023-04-15T08:18:51.740Z,98485.78
2023-04-15T08:21:20.144Z,98477.31
2023-04-15T08:23:48.545Z,98479.41
2023-04-15T08:26:15.748Z,98466.59
2023-04-15T08:28:49.274Z,98477.59
2023-04-15T08:31:17.769Z,98483.72
2023-04-15T08:33:45.310Z,98488.09
2023-04-15T08:36:12.353Z,98499.16
2023-04-15T08:38:39.253Z,98488.91
2023-04-15T08:41:23.692Z,98501.00
2023-04-15T08:43:58.978Z,98504.31
2023-04-15T08:46:26.924Z,98515.34
2023-04-15T08:48:57.313Z,98509.88
2023-04-15T08:51:25.953Z,98520.13
2023-04-15T08:53:53.361Z,98530.00
2023-04-15T08:56:25.382Z,98513.75
2023-04-15T08:58:53.381Z,98519.88
2023-04-15T09:01:21.263Z,98530.72
2023-04-15T09:03:50.527Z,98525.34
2023-04-15T09:06:18.138Z,98517.34
2023-04-15T09:08:49.733Z,98504.38
2023-04-15T09:11:20.019Z,98515.41
2023-04-15T09:13:47.362Z,98522.72
2023-04-15T09:16:14.534Z,98511.66
2023-04-15T09:18:41.377Z,98512.56
2023-04-15T09:21:12.889Z,98512.72
2023-04-15T09:23:42.067Z,98509.31
2023-04-15T09:26:08.994Z,98503.66
2023-04-15T09:28:42.699Z,98520.28
2023-04-15T09:31:10.838Z,98508.84
2023-04-15T09:33:55.250Z,98505.56
2023-04-15T09:36:22.153Z,98507.56
2023-04-15T09:38:56.837Z,98493.72
2023-04-15T09:41:25.098Z,98498.59
2023-04-15T09:43:52.585Z,98489.38
2023-04-15T09:46:19.740Z,98500.41
2023-04-15T09:48:46.884Z,98523.66
2023-04-15T09:51:14.395Z,98509.41
2023-04-15T09:53:41.425Z,98505.72
2023-04-15T09:56:09.515Z,98496.09
2023-04-15T09:58:38.903Z,98493.13
2023-04-15T10:01:10.189Z,98507.63
2023-04-15T10:03:37.749Z,98499.72
2023-04-15T10:06:05.817Z,98502.88
2023-04-15T10:08:35.154Z,98493.59
2023-04-15T10:11:03.465Z,98495.44
2023-04-15T10:13:33.540Z,98494.97
2023-04-15T10:16:21.603Z,98487.94
2023-04-15T10:18:55.485Z,98497.22
2023-04-15T10:21:23.860Z,98499.72
2023-04-15T10:23:55.190Z,98493.44
2023-04-15T10:26:22.370Z,98488.59
2023-04-15T10:28:50.181Z,98493.78
2023-04-15T10:31:18.646Z,98487.97
2023-04-15T10:33:47.658Z,98481.69
2023-04-15T10:36:15.564Z,98485.41
2023-04-15T10:38:48.618Z,98485.19
2023-04-15T10:41:22.839Z,98487.38
2023-04-15T10:44:09.179Z,98474.03
2023-04-15T10:46:42.396Z,98472.13
2023-04-15T10:49:18.213Z,98471.00
2023-04-15T10:51:52.995Z,98459.69
2023-04-15T10:54:39.068Z,98477.19
2023-04-15T10:57:08.522Z,98477.81
2023-04-15T11:00:06.815Z,98481.41
2023-04-15T11:02:44.130Z,98480.50
2023-04-15T11:05:42.275Z,98477.28
2023-04-15T11:08:10.786Z,98472.06
2023-04-15T11:10:37.534Z,98481.09
2023-04-15T11:13:27.390Z,98478.94
2023-04-15T11:15:58.496Z,98485.63
2023-04-15T11:18:28.711Z,98486.59
2023-04-15T11:21:01.389Z,98473.94
2023-04-15T11:23:38.266Z,98479.81
2023-04-15T11:26:10.015Z,98475.28
2023-04-15T11:28:38.926Z,98477.78
2023-04-15T11:31:08.835Z,98468.09
2023-04-15T11:33:35.833Z,98466.16
2023-04-15T11:36:04.401Z,98461.75
2023-04-15T11:38:31.789Z,98466.31
2023-04-15T11:40:58.930Z,98461.50
2023-04-15T11:43:25.925Z,98464.41
2023-04-15T11:45:56.553Z,98452.56
2023-04-15T11:48:29.176Z,98455.38
2023-04-15T11:51:07.301Z,98452.41
2023-04-15T11:53:49.136Z,98457.16
2023-04-15T11:56:23.246Z,98461.09
2023-04-15T11:59:22.958Z,98462.56
2023-04-15T12:01:52.552Z,98451.94
2023-04-15T12:04:25.419Z,98451.13
2023-04-15T12:06:53.178Z,98447.03
2023-04-15T12:09:25.384Z,98462.09
2023-04-15T12:11:55.680Z,98451.66
2023-04-15T12:14:24.527Z,98446.59
2023-04-15T12:17:18.137Z,98459.88
2023-04-15T12:19:48.627Z,98459.31
2023-04-15T12:22:38.229Z,98453.94
2023-04-15T12:25:05.486Z,98457.47
2023-04-15T12:27:32.520Z,98447.16
2023-04-15T12:30:06.458Z,98456.00
2023-04-15T12:32:35.691Z,98465.31
2023-04-15T12:35:02.565Z,98449.44
2023-04-15T12:37:29.443Z,98454.47
2023-04-15T12:39:56.354Z,98462.25
2023-04-15T12:42:23.136Z,98462.56
2023-04-15T12:44:49.992Z,98459.50
2023-04-15T12:47:17.008Z,98453.81
2023-04-15T12:49:43.968Z,98461.06
2023-04-15T12:52:10.966Z,98449.53
2023-04-15T12:54:37.847Z,98448.84
2023-04-15T12:57:07.710Z,98445.19
2023-04-15T12:59:37.696Z,98450.09
2023-04-15T13:02:04.867Z,98447.72
2023-04-15T13:04:32.192Z,98442.81
2023-04-15T13:06:59.344Z,98452.44
2023-04-15T13:09:26.554Z,98442.75
2023-04-15T13:11:54.662Z,98454.19
2023-04-15T13:14:38.817Z,98447.66
2023-04-15T13:17:10.305Z,98448.78
2023-04-15T13:19:37.306Z,98451.03
2023-04-15T13:22:04.279Z,98457.53
2023-04-15T13:24:31.118Z,98444.28
2023-04-15T13:26:59.364Z,98451.38
2023-04-15T13:29:26.759Z,98445.53
2023-04-15T13:31:53.643Z,98456.78
2023-04-15T13:34:20.596Z,98447.38
2023-04-15T13:36:48.488Z,98460.53
2023-04-15T13:39:15.470Z,98459.00
2023-04-15T13:41:42.782Z,98451.06
2023-04-15T13:44:09.707Z,98446.34
2023-04-15T13:46:37.937Z,98446.50
2023-04-15T13:49:04.800Z,98440.22
2023-04-15T13:51:32.058Z,98439.41
2023-04-15T13:53:58.949Z,98457.97
2023-04-15T13:56:26.173Z,98448.28
2023-04-15T13:58:59.043Z,98436.81
2023-04-15T14:01:41.458Z,98451.16
2023-04-15T14:04:18.439Z,98448.31
2023-04-15T14:06:45.531Z,98453.19
2023-04-15T14:09:12.308Z,98440.28
2023-04-15T14:11:39.828Z,98456.31
2023-04-15T14:14:06.871Z,98450.09
2023-04-15T14:16:34.574Z,98447.94
2023-04-15T14:19:02.660Z,98434.50
2023-04-15T14:21:40.663Z,98440.00
2023-04-15T14:24:07.654Z,98448.03
2023-04-15T14:26:34.588Z,98447.91
2023-04-15T14:29:27.247Z,98442.38
2023-04-15T14:32:04.334Z,98446.00
2023-04-15T14:34:39.581Z,98446.75
2023-04-15T14:37:06.779Z,98440.84
2023-04-15T14:39:33.603Z,98444.13
2023-04-15T14:42:00.557Z,98442.28
2023-04-15T14:44:27.450Z,98443.09
2023-04-15T14:46:55.008Z,98444.72
2023-04-15T14:49:21.991Z,98441.31
2023-04-15T14:51:48.852Z,98442.31
2023-04-15T14:54:15.803Z,98447.44
2023-04-15T14:57:07.941Z,98447.31
2023-04-15T14:59:36.813Z,98448.94
2023-04-15T15:02:04.149Z,98449.03
2023-04-15T15:04:33.554Z,98440.50
2023-04-15T15:10:49.402Z,98449.25
2023-04-15T15:13:18.019Z,98445.03
2023-04-15T15:15:45.575Z,98443.91
2023-04-15T15:18:12.483Z,98439.66
2023-04-15T15:20:39.405Z,98437.06
2023-04-15T15:23:06.294Z,98438.78
2023-04-15T15:25:35.197Z,98448.44
2023-04-15T15:28:02.046Z,98444.22
2023-04-15T15:30:29.062Z,98446.72
2023-04-15T15:33:03.972Z,98439.81
2023-04-15T15:35:31.106Z,98447.78
2023-04-15T15:38:00.787Z,98439.84
2023-04-15T15:40:27.705Z,98438.13
2023-04-15T15:42:54.507Z,98442.66
2023-04-15T15:45:21.458Z,98442.78
2023-04-15T15:47:48.337Z,98446.31
2023-04-15T15:50:36.910Z,98446.53
2023-04-15T15:53:03.727Z,98449.34
2023-04-15T15:55:32.884Z,98447.13
2023-04-15T15:58:07.894Z,98441.47
2023-04-15T16:00:43.146Z,98444.09
2023-04-15T16:03:35.432Z,98440.75
2023-04-15T16:06:02.386Z,98444.13
2023-04-15T16:08:29.244Z,98447.13
2023-04-15T16:10:56.235Z,98448.13
2023-04-15T16:13:23.327Z,98448.13
2023-04-15T16:15:59.386Z,98452.66
2023-04-15T16:18:26.237Z,98446.63
2023-04-15T16:20:53.099Z,98452.03
2023-04-15T16:23:20.162Z,98449.41
2023-04-15T16:25:47.023Z,98452.03
2023-04-15T16:28:25.177Z,98452.16
2023-04-15T16:30:53.319Z,98441.91
2023-04-15T16:33:20.403Z,98452.31
2023-04-15T16:35:47.424Z,98445.28
2023-04-15T16:38:14.351Z,98434.84
2023-04-15T16:40:41.428Z,98441.09
2023-04-15T16:43:11.279Z,98451.69
2023-04-15T16:45:38.609Z,98456.19
2023-04-15T16:48:05.954Z,98454.53
2023-04-15T16:50:32.937Z,98453.69
2023-04-15T16:53:11.007Z,98455.56
2023-04-15T16:56:08.056Z,98460.06
2023-04-15T16:58:37.216Z,98459.41
2023-04-15T17:01:04.283Z,98461.41
2023-04-15T17:03:34.421Z,98459.84
2023-04-15T17:06:01.494Z,98471.22
2023-04-15T17:08:34.523Z,98464.44
2023-04-15T17:11:12.907Z,98475.09
2023-04-15T17:13:39.762Z,98474.47
2023-04-15T17:16:10.843Z,98476.50
2023-04-15T17:18:38.818Z,98475.13
2023-04-15T17:24:46.637Z,98487.06
2023-04-15T17:27:13.455Z,98493.28
2023-04-15T17:29:40.269Z,98495.38
2023-04-15T17:32:08.521Z,98493.03
2023-04-15T17:34:49.714Z,98500.94
2023-04-15T17:37:18.733Z,98502.91
2023-04-15T17:39:45.814Z,98511.03
2023-04-15T17:42:13.837Z,98519.94
2023-04-15T17:44:46.199Z,98521.88
2023-04-15T17:47:21.950Z,98523.91
2023-04-15T17:49:48.863Z,98530.97
2023-04-15T17:52:15.716Z,98533.50
2023-04-15T17:54:42.688Z,98537.94
2023-04-15T17:57:09.857Z,98537.00
2023-04-15T17:59:36.755Z,98550.94
2023-04-15T18:02:04.208Z,98553.75
2023-04-15T18:04:31.271Z,98553.44
2023-04-15T18:06:58.237Z,98549.81
2023-04-15T18:09:25.198Z,98560.31
2023-04-15T18:11:52.037Z,98557.69
2023-04-15T18:14:32.966Z,98562.19
2023-04-15T18:17:01.235Z,98565.56
2023-04-15T18:19:28.071Z,98569.91
2023-04-15T18:21:54.953Z,98577.06
2023-04-15T18:24:22.831Z,98592.03
2023-04-15T18:26:49.774Z,98587.88
2023-04-15T18:29:16.743Z,98591.34
2023-04-15T18:31:44.008Z,98594.69
2023-04-15T18:34:10.987Z,98609.47
2023-04-15T18:36:37.970Z,98610.31
2023-04-15T18:39:05.610Z,98610.38
2023-04-15T18:41:32.889Z,98615.66
2023-04-15T18:43:59.808Z,98609.63
2023-04-15T18:46:27.879Z,98626.28
2023-04-15T18:48:54.852Z,98638.47
2023-04-15T18:51:21.748Z,98635.16
2023-04-15T18:53:49.038Z,98638.69
2023-04-15T18:56:15.936Z,98638.72
2023-04-15T18:59:10.107Z,98638.72
2023-04-15T19:01:31.818Z,98642.13
2023-04-15T19:03:58.991Z,98638.66
2023-04-15T19:06:27.424Z,98649.06
2023-04-15T19:08:54.865Z,98654.25
2023-04-15T19:11:21.922Z,98652.53
2023-04-15T19:13:48.760Z,98656.91
2023-04-15T19:16:15.807Z,98656.03
2023-04-15T19:18:43.357Z,98649.97
2023-04-15T19:21:12.725Z,98643.06
2023-04-15T19:23:39.945Z,98644.84
2023-04-15T19:26:08.372Z,98643.97
2023-04-15T19:28:35.315Z,98647.47
2023-04-15T19:31:02.336Z,98648.34
2023-04-15T19:33:31.597Z,98650.94
2023-04-15T19:36:07.565Z,98647.47
2023-04-15T19:38:36.170Z,98635.34
2023-04-15T19:41:03.156Z,98626.66
2023-04-15T19:43:31.079Z,98628.41
2023-04-15T19:45:57.993Z,98628.44
2023-04-15T19:48:25.574Z,98624.97
2023-04-15T19:50:52.475Z,98614.63
2023-04-15T19:53:19.413Z,98627.59
2023-04-15T19:55:47.317Z,98631.94
2023-04-15T19:58:14.546Z,98636.25
2023-04-15T20:00:42.161Z,98634.53
2023-04-15T20:03:09.408Z,98641.47
2023-04-15T20:05:36.509Z,98638.88
2023-04-15T20:08:03.721Z,98648.41
2023-04-15T20:10:31.951Z,98638.00
2023-04-15T20:12:59.270Z,98645.78
2023-04-15T20:15:26.305Z,98641.47
2023-04-15T20:17:53.512Z,98644.06
2023-04-15T20:20:20.783Z,98653.56
2023-04-15T20:22:48.199Z,98655.25
2023-04-15T20:25:15.252Z,98653.47
2023-04-15T20:27:42.122Z,98648.34
2023-04-15T20:30:09.452Z,98653.50
2023-04-15T20:32:36.520Z,98650.06
2023-04-15T20:35:05.099Z,98661.25
2023-04-15T20:37:33.747Z,98662.16
2023-04-15T20:40:01.877Z,98663.84
2023-04-15T20:42:33.213Z,98672.38
2023-04-15T20:45:00.584Z,98668.06
2023-04-15T20:47:27.510Z,98672.34
2023-04-15T20:49:54.710Z,98671.53
2023-04-15T20:52:21.963Z,98664.66
2023-04-15T20:54:48.961Z,98663.81
2023-04-15T20:57:16.041Z,98669.00
2023-04-15T20:59:42.935Z,98675.94
2023-04-15T21:02:10.007Z,98674.19
2023-04-15T21:04:38.534Z,98669.84
2023-04-15T21:07:05.418Z,98670.69
2023-04-15T21:09:32.390Z,98664.63
2023-04-15T21:12:01.734Z,98666.38
2023-04-15T21:14:29.764Z,98667.25
2023-04-15T21:17:00.033Z,98669.00
2023-04-15T21:19:26.976Z,98672.47
2023-04-15T21:21:53.829Z,98665.53
2023-04-15T21:24:20.702Z,98681.97
2023-04-15T21:26:47.798Z,98679.38
2023-04-15T21:29:14.868Z,98684.56
2023-04-15T21:31:42.180Z,98680.16
2023-04-15T21:34:09.780Z,98693.97
2023-04-15T21:36:37.880Z,98687.97
2023-04-15T21:39:05.941Z,98689.66
2023-04-15T21:41:32.998Z,98687.16
2023-04-15T21:44:06.283Z,98678.53
2023-04-15T21:46:35.560Z,98681.13
2023-04-15T21:49:02.675Z,98685.41
2023-04-15T21:51:29.646Z,98689.72
2023-04-15T21:53:56.462Z,98687.16
2023-04-15T21:56:24.475Z,98690.63
2023-04-15T21:58:54.260Z,98690.53
2023-04-15T22:01:21.154Z,98682.75
2023-04-15T22:03:48.564Z,98690.56
2023-04-15T22:06:15.980Z,98694.00
2023-04-15T22:08:54.952Z,98698.38
2023-04-15T22:11:27.497Z,98693.88
2023-04-15T22:13:55.082Z,98699.13
2023-04-15T22:16:22.045Z,98700.03
2023-04-15T22:18:49.074Z,98697.44
2023-04-15T22:21:16.399Z,98706.00
2023-04-15T22:23:47.152Z,98703.28
2023-04-15T22:26:14.114Z,98705.03
2023-04-15T22:28:41.032Z,98706.78
2023-04-15T22:31:08.023Z,98707.66
2023-04-15T22:33:35.005Z,98708.56
2023-04-15T22:36:02.033Z,98708.53
2023-04-15T22:38:28.915Z,98710.22
2023-04-15T22:40:55.999Z,98707.56
2023-04-15T22:43:22.815Z,98717.03
2023-04-15T22:46:00.373Z,98722.25
2023-04-15T22:48:27.328Z,98721.22
2023-04-15T22:50:54.126Z,98713.41
2023-04-15T22:53:21.035Z,98716.81
2023-04-15T22:55:48.784Z,98720.38
2023-04-15T22:58:16.404Z,98717.66
2023-04-15T23:00:43.287Z,98722.00
2023-04-15T23:03:10.484Z,98721.97
2023-04-15T23:05:37.613Z,98729.56
2023-04-15T23:08:06.221Z,98733.94
2023-04-15T23:10:33.358Z,98718.25
2023-04-15T23:13:00.205Z,98722.69
2023-04-15T23:15:27.046Z,98718.47
2023-04-15T23:17:57.025Z,98714.16
2023-04-15T23:20:23.953Z,98715.00
2023-04-15T23:22:50.956Z,98719.28
2023-04-15T23:25:18.319Z,98723.59
2023-04-15T23:27:45.464Z,98713.25
2023-04-15T23:30:12.396Z,98717.47
2023-04-15T23:32:39.371Z,98720.97
2023-04-15T23:35:06.726Z,98715.72
2023-04-15T23:37:33.547Z,98722.53
2023-04-15T23:40:00.727Z,98724.72
2023-04-15T23:42:27.559Z,98715.22
2023-04-15T23:44:54.425Z,98720.06
2023-04-15T23:47:21.876Z,98717.34
2023-04-15T23:49:48.701Z,98723.47
2023-04-15T23:52:15.625Z,98719.22
2023-04-15T23:54:42.622Z,98715.91
2023-04-15T23:57:09.509Z,98722.03
2023-04-15T23:59:36.851Z,98709.91
